Tropical Cyclones
[Index]
Main Index Home Page Stock Weather Photos Extreme Storms Discussion Storm News and Storm Chasing Reports Tropical Cyclones / Hurricanes / Typhoons Weather Data and Links Wild Fires / Bushfires Weather Observation Techniques Weather Picture Catalogue Tornado Pictures and Reports Stock Video Footage and DVDs for sale
Season 1964-1965 Tropical Cyclone GAY-OLIVE-PEGGY Track Map
Season 1964-1965 Summaries: [BoM-AU] [JTWC-AU] [JTWC-SIO] [JTWC-SPAC] [JTWC-SH]
<<- Previous TC | JTWC 1964-1965 Season | Next TC ->>

click for intensity scale information  Lat/long Grid: Show Hide

 Date Labels: Show Hide

Joint Typhoon Warning Centre Cyclone Data

Name: GAY-OLIVE-PEGGY
Number: 569 / 6532

24 Feb 1965 06:00 UTC to 11 Mar 1965 06:00 UTC

    date/time    lat    long     hPa   cat  kts
1965-02-24 06   12.7    84.6                              
1965-02-24 12   13.9    84.4                              
1965-02-24 18   15.0    84.0                              
1965-02-25 00   15.9    83.0                              
1965-02-25 06   16.5    82.1                              
1965-02-25 12   16.8    82.2                              
1965-02-25 18   17.2    82.3                              
1965-02-26 00   17.5    81.8                              
1965-02-26 06   17.9    81.3                              
1965-02-26 12   18.1    81.0                              
1965-02-26 18   18.1    80.6                              
1965-02-27 00   18.1    80.2                              
1965-02-27 06   18.0    79.7                              
1965-02-27 12   17.8    79.0                              
1965-02-27 18   17.6    78.3                              
1965-02-28 00   17.4    77.8                              
1965-02-28 06   17.1    77.2                              
1965-02-28 12   16.6    76.5                              
1965-02-28 18   16.1    75.8                              
1965-03-01 00   15.6    75.1                              
1965-03-01 06   15.0    74.5                              
1965-03-01 12   14.4    73.9                              
1965-03-01 18   13.8    73.4                              
1965-03-02 00   13.6    72.6                              
1965-03-02 06   13.9    71.8                              
1965-03-02 12   14.4    71.4                              
1965-03-02 18   14.9    71.0                              
1965-03-03 00   15.3    70.6                              
1965-03-03 06   15.8    70.3                              
1965-03-03 12   16.4    70.1                              
1965-03-03 18   17.1    69.9                              
1965-03-04 00   17.8    69.7                              
1965-03-04 06   18.6    69.5                              
1965-03-04 12   19.5    69.4                              
1965-03-04 18   20.4    69.6                              
1965-03-05 00   21.0    69.8                              
1965-03-05 06   21.5    70.0                              
1965-03-05 12   22.3    70.2                              
1965-03-05 18   23.0    70.4                              
1965-03-06 00   23.6    70.5                              
1965-03-06 06   24.2    70.5                              
1965-03-06 12   24.7    70.4                              
1965-03-06 18   25.0    70.2                              
1965-03-07 00   25.1    69.8                              
1965-03-07 06   24.8    69.2                              
1965-03-07 12   24.2    68.6                              
1965-03-07 18   23.5    67.9                              
1965-03-08 00   22.9    67.0                              
1965-03-08 06   22.4    66.0                              
1965-03-08 12   22.1    65.0                              
1965-03-08 18   22.0    64.0                              
1965-03-09 00   22.3    63.0                              
1965-03-09 06   23.0    61.9                              
1965-03-09 12   24.0    61.2                              
1965-03-09 18   25.0    60.9                              
1965-03-10 00   26.1    60.6                              
1965-03-10 06   27.2    61.0                              
1965-03-10 12   28.4    62.4                              
1965-03-10 18   29.5    64.3                              
1965-03-11 00   30.1    66.2                              
1965-03-11 06   30.2    68.2                              
Winds are 1-min average.

Tropical cyclone tracks developed by Michael Bath using data from the Joint Typhoon Warning Centre Best Tracks and Google Maps.


[Australian Severe Weather index] [Copyright Notice] [Email Contacts] [Search This Site] [Privacy Policy]
Document: tropical_cyclone_gay-olive-peggy.htm Updated: 18 September 2016